sensor_id;sensor_type;location;lat;lon;timestamp;P1;durP1;ratioP1;P2;durP2;ratioP2
56073;SDS011;41950;55.840;37.442;2022-07-23T00:00:05;5.32;;;3.45;;
56073;SDS011;41950;55.840;37.442;2022-07-23T00:02:32;4.88;;;3.40;;
56073;SDS011;41950;55.840;37.442;2022-07-23T00:04:58;6.18;;;3.50;;
56073;SDS011;41950;55.840;37.442;2022-07-23T00:07:23;5.75;;;3.65;;
56073;SDS011;41950;55.840;37.442;2022-07-23T00:09:49;5.95;;;3.42;;
56073;SDS011;41950;55.840;37.442;2022-07-23T00:12:14;4.10;;;3.25;;
56073;SDS011;41950;55.840;37.442;2022-07-23T00:14:40;4.32;;;3.45;;
56073;SDS011;41950;55.840;37.442;2022-07-23T00:17:06;4.63;;;3.50;;
56073;SDS011;41950;55.840;37.442;2022-07-23T00:19:31;5.75;;;3.80;;
56073;SDS011;41950;55.840;37.442;2022-07-23T00:21:57;6.43;;;3.83;;
56073;SDS011;41950;55.840;37.442;2022-07-23T00:24:23;6.30;;;3.90;;
56073;SDS011;41950;55.840;37.442;2022-07-23T00:26:48;5.18;;;4.15;;
56073;SDS011;41950;55.840;37.442;2022-07-23T00:29:14;4.35;;;3.40;;
56073;SDS011;41950;55.840;37.442;2022-07-23T00:31:39;5.20;;;3.50;;
56073;SDS011;41950;55.840;37.442;2022-07-23T00:34:06;6.97;;;3.67;;
56073;SDS011;41950;55.840;37.442;2022-07-23T00:36:31;4.22;;;3.40;;
56073;SDS011;41950;55.840;37.442;2022-07-23T00:38:58;4.70;;;3.60;;
56073;SDS011;41950;55.840;37.442;2022-07-23T00:41:23;4.97;;;3.85;;
56073;SDS011;41950;55.840;37.442;2022-07-23T00:43:49;6.40;;;4.30;;
56073;SDS011;41950;55.840;37.442;2022-07-23T00:46:21;8.40;;;4.70;;
56073;SDS011;41950;55.840;37.442;2022-07-23T00:48:47;7.72;;;4.72;;
56073;SDS011;41950;55.840;37.442;2022-07-23T00:51:17;7.18;;;4.53;;
56073;SDS011;41950;55.840;37.442;2022-07-23T00:53:43;7.47;;;4.72;;
56073;SDS011;41950;55.840;37.442;2022-07-23T00:56:09;9.10;;;5.30;;
56073;SDS011;41950;55.840;37.442;2022-07-23T00:58:36;6.53;;;4.82;;
56073;SDS011;41950;55.840;37.442;2022-07-23T01:01:03;8.15;;;5.07;;
56073;SDS011;41950;55.840;37.442;2022-07-23T01:03:28;9.10;;;4.72;;
56073;SDS011;41950;55.840;37.442;2022-07-23T01:05:54;8.35;;;4.80;;
56073;SDS011;41950;55.840;37.442;2022-07-23T01:08:19;6.40;;;4.43;;
56073;SDS011;41950;55.840;37.442;2022-07-23T01:10:46;6.25;;;4.32;;
56073;SDS011;41950;55.840;37.442;2022-07-23T01:13:13;5.72;;;4.25;;
56073;SDS011;41950;55.840;37.442;2022-07-23T01:15:39;6.78;;;4.47;;
56073;SDS011;41950;55.840;37.442;2022-07-23T01:18:05;6.72;;;4.25;;
56073;SDS011;41950;55.840;37.442;2022-07-23T01:20:32;6.85;;;4.57;;
56073;SDS011;41950;55.840;37.442;2022-07-23T01:22:58;8.07;;;4.32;;
56073;SDS011;41950;55.840;37.442;2022-07-23T01:25:24;8.68;;;4.63;;
56073;SDS011;41950;55.840;37.442;2022-07-23T01:27:53;5.45;;;4.20;;
56073;SDS011;41950;55.840;37.442;2022-07-23T01:30:19;7.35;;;4.10;;
56073;SDS011;41950;55.840;37.442;2022-07-23T01:32:46;6.75;;;4.75;;
56073;SDS011;41950;55.840;37.442;2022-07-23T01:35:11;8.55;;;4.70;;
56073;SDS011;41950;55.840;37.442;2022-07-23T01:37:37;5.28;;;4.03;;
56073;SDS011;41950;55.840;37.442;2022-07-23T01:40:04;5.90;;;4.07;;
56073;SDS011;41950;55.840;37.442;2022-07-23T01:42:31;8.57;;;4.30;;
56073;SDS011;41950;55.840;37.442;2022-07-23T01:44:57;5.35;;;3.90;;
56073;SDS011;41950;55.840;37.442;2022-07-23T01:47:22;5.18;;;4.40;;
56073;SDS011;41950;55.840;37.442;2022-07-23T01:49:48;5.32;;;3.95;;
56073;SDS011;41950;55.840;37.442;2022-07-23T01:52:14;6.05;;;4.30;;
56073;SDS011;41950;55.840;37.442;2022-07-23T01:54:39;5.10;;;4.03;;
56073;SDS011;41950;55.840;37.442;2022-07-23T01:57:08;6.55;;;4.38;;
56073;SDS011;41950;55.840;37.442;2022-07-23T01:59:34;7.95;;;4.40;;
56073;SDS011;41950;55.840;37.442;2022-07-23T02:01:59;5.35;;;4.10;;
56073;SDS011;41950;55.840;37.442;2022-07-23T02:04:25;7.82;;;3.95;;
56073;SDS011;41950;55.840;37.442;2022-07-23T02:06:51;6.32;;;3.90;;
56073;SDS011;41950;55.840;37.442;2022-07-23T02:09:17;5.72;;;4.60;;
56073;SDS011;41950;55.840;37.442;2022-07-23T02:11:43;5.10;;;4.38;;
56073;SDS011;41950;55.840;37.442;2022-07-23T02:14:09;6.03;;;4.20;;
56073;SDS011;41950;55.840;37.442;2022-07-23T02:16:34;5.30;;;4.10;;
56073;SDS011;41950;55.840;37.442;2022-07-23T02:19:03;6.45;;;4.60;;
56073;SDS011;41950;55.840;37.442;2022-07-23T02:21:29;5.55;;;4.30;;
56073;SDS011;41950;55.840;37.442;2022-07-23T02:23:55;5.80;;;4.65;;
56073;SDS011;41950;55.840;37.442;2022-07-23T02:26:20;7.35;;;4.63;;
56073;SDS011;41950;55.840;37.442;2022-07-23T02:28:46;6.05;;;4.20;;
56073;SDS011;41950;55.840;37.442;2022-07-23T02:31:12;5.60;;;4.40;;
56073;SDS011;41950;55.840;37.442;2022-07-23T02:33:37;7.53;;;4.40;;
56073;SDS011;41950;55.840;37.442;2022-07-23T02:36:03;7.88;;;4.60;;
56073;SDS011;41950;55.840;37.442;2022-07-23T02:38:30;5.82;;;4.50;;
56073;SDS011;41950;55.840;37.442;2022-07-23T02:40:57;6.72;;;4.95;;
56073;SDS011;41950;55.840;37.442;2022-07-23T02:43:22;8.07;;;5.10;;
56073;SDS011;41950;55.840;37.442;2022-07-23T02:45:49;8.68;;;4.90;;
56073;SDS011;41950;55.840;37.442;2022-07-23T02:48:15;6.70;;;4.90;;
56073;SDS011;41950;55.840;37.442;2022-07-23T02:50:42;7.18;;;4.68;;
56073;SDS011;41950;55.840;37.442;2022-07-23T02:53:09;7.80;;;4.38;;
56073;SDS011;41950;55.840;37.442;2022-07-23T02:55:35;6.10;;;4.57;;
56073;SDS011;41950;55.840;37.442;2022-07-23T02:58:01;7.03;;;4.70;;
56073;SDS011;41950;55.840;37.442;2022-07-23T03:00:27;6.45;;;4.75;;
56073;SDS011;41950;55.840;37.442;2022-07-23T03:02:53;6.60;;;5.05;;
56073;SDS011;41950;55.840;37.442;2022-07-23T03:05:18;7.13;;;4.82;;
56073;SDS011;41950;55.840;37.442;2022-07-23T03:07:44;7.38;;;4.70;;
56073;SDS011;41950;55.840;37.442;2022-07-23T03:10:11;7.60;;;4.78;;
56073;SDS011;41950;55.840;37.442;2022-07-23T03:12:37;7.07;;;4.78;;
56073;SDS011;41950;55.840;37.442;2022-07-23T03:15:03;5.85;;;4.22;;
56073;SDS011;41950;55.840;37.442;2022-07-23T03:17:29;5.90;;;4.40;;
56073;SDS011;41950;55.840;37.442;2022-07-23T03:19:55;7.82;;;4.50;;
56073;SDS011;41950;55.840;37.442;2022-07-23T03:22:21;6.72;;;4.60;;
56073;SDS011;41950;55.840;37.442;2022-07-23T03:24:46;7.15;;;4.68;;
56073;SDS011;41950;55.840;37.442;2022-07-23T03:27:24;6.72;;;3.97;;
56073;SDS011;41950;55.840;37.442;2022-07-23T03:29:54;5.35;;;4.22;;
56073;SDS011;41950;55.840;37.442;2022-07-23T03:32:22;6.15;;;4.80;;
56073;SDS011;41950;55.840;37.442;2022-07-23T03:34:48;5.07;;;4.20;;
56073;SDS011;41950;55.840;37.442;2022-07-23T03:37:14;5.63;;;4.50;;
56073;SDS011;41950;55.840;37.442;2022-07-23T03:39:40;7.65;;;4.55;;
56073;SDS011;41950;55.840;37.442;2022-07-23T03:42:08;7.68;;;4.40;;
56073;SDS011;41950;55.840;37.442;2022-07-23T03:44:34;7.78;;;5.10;;
56073;SDS011;41950;55.840;37.442;2022-07-23T03:47:03;6.07;;;4.40;;
56073;SDS011;41950;55.840;37.442;2022-07-23T03:49:31;6.43;;;4.20;;
56073;SDS011;41950;55.840;37.442;2022-07-23T03:51:58;12.35;;;5.47;;
56073;SDS011;41950;55.840;37.442;2022-07-23T03:54:23;8.35;;;4.75;;
56073;SDS011;41950;55.840;37.442;2022-07-23T03:56:49;6.03;;;4.50;;
56073;SDS011;41950;55.840;37.442;2022-07-23T03:59:15;6.43;;;4.47;;
56073;SDS011;41950;55.840;37.442;2022-07-23T04:01:41;6.35;;;4.47;;
56073;SDS011;41950;55.840;37.442;2022-07-23T04:04:08;6.65;;;4.75;;
56073;SDS011;41950;55.840;37.442;2022-07-23T04:06:34;6.45;;;4.15;;
56073;SDS011;41950;55.840;37.442;2022-07-23T04:09:01;7.00;;;4.70;;
56073;SDS011;41950;55.840;37.442;2022-07-23T04:11:28;6.13;;;4.63;;
56073;SDS011;41950;55.840;37.442;2022-07-23T04:13:54;7.18;;;4.65;;
56073;SDS011;41950;55.840;37.442;2022-07-23T04:16:22;6.88;;;4.95;;
56073;SDS011;41950;55.840;37.442;2022-07-23T04:18:48;7.18;;;5.00;;
56073;SDS011;41950;55.840;37.442;2022-07-23T04:21:16;7.22;;;4.63;;
56073;SDS011;41950;55.840;37.442;2022-07-23T04:23:42;5.80;;;4.80;;
56073;SDS011;41950;55.840;37.442;2022-07-23T04:26:10;12.98;;;5.75;;
56073;SDS011;41950;55.840;37.442;2022-07-23T04:28:36;7.80;;;4.75;;
56073;SDS011;41950;55.840;37.442;2022-07-23T04:31:01;8.90;;;5.25;;
56073;SDS011;41950;55.840;37.442;2022-07-23T04:33:27;16.95;;;5.78;;
56073;SDS011;41950;55.840;37.442;2022-07-23T04:35:53;11.00;;;5.07;;
56073;SDS011;41950;55.840;37.442;2022-07-23T04:38:18;7.32;;;5.00;;
56073;SDS011;41950;55.840;37.442;2022-07-23T04:40:44;6.65;;;4.88;;
56073;SDS011;41950;55.840;37.442;2022-07-23T04:43:10;7.63;;;4.70;;
56073;SDS011;41950;55.840;37.442;2022-07-23T04:45:38;7.13;;;4.35;;
56073;SDS011;41950;55.840;37.442;2022-07-23T04:48:04;7.60;;;4.47;;
56073;SDS011;41950;55.840;37.442;2022-07-23T04:50:31;7.63;;;4.85;;
56073;SDS011;41950;55.840;37.442;2022-07-23T04:52:59;7.38;;;4.80;;
56073;SDS011;41950;55.840;37.442;2022-07-23T04:55:25;7.03;;;4.68;;
56073;SDS011;41950;55.840;37.442;2022-07-23T04:57:51;5.60;;;4.90;;
56073;SDS011;41950;55.840;37.442;2022-07-23T05:00:18;6.97;;;4.65;;
56073;SDS011;41950;55.840;37.442;2022-07-23T05:02:44;6.53;;;4.53;;
56073;SDS011;41950;55.840;37.442;2022-07-23T05:05:10;5.05;;;4.50;;
56073;SDS011;41950;55.840;37.442;2022-07-23T05:07:36;5.82;;;4.95;;
56073;SDS011;41950;55.840;37.442;2022-07-23T05:10:05;6.47;;;4.53;;
56073;SDS011;41950;55.840;37.442;2022-07-23T05:12:32;5.15;;;4.60;;
56073;SDS011;41950;55.840;37.442;2022-07-23T05:14:58;6.57;;;5.07;;
56073;SDS011;41950;55.840;37.442;2022-07-23T05:17:25;6.18;;;4.47;;
56073;SDS011;41950;55.840;37.442;2022-07-23T05:19:53;5.35;;;4.47;;
56073;SDS011;41950;55.840;37.442;2022-07-23T05:22:19;5.35;;;4.85;;
56073;SDS011;41950;55.840;37.442;2022-07-23T05:24:44;5.72;;;4.57;;
56073;SDS011;41950;55.840;37.442;2022-07-23T05:27:10;5.10;;;4.57;;
56073;SDS011;41950;55.840;37.442;2022-07-23T05:29:36;6.00;;;4.93;;
56073;SDS011;41950;55.840;37.442;2022-07-23T05:32:02;6.30;;;4.55;;
56073;SDS011;41950;55.840;37.442;2022-07-23T05:34:30;5.38;;;4.47;;
56073;SDS011;41950;55.840;37.442;2022-07-23T05:36:57;5.47;;;4.40;;
56073;SDS011;41950;55.840;37.442;2022-07-23T05:39:23;5.28;;;4.78;;
56073;SDS011;41950;55.840;37.442;2022-07-23T05:41:49;6.20;;;4.63;;
56073;SDS011;41950;55.840;37.442;2022-07-23T05:44:15;5.70;;;4.68;;
56073;SDS011;41950;55.840;37.442;2022-07-23T05:46:40;5.40;;;4.43;;
56073;SDS011;41950;55.840;37.442;2022-07-23T05:49:06;5.10;;;4.43;;
56073;SDS011;41950;55.840;37.442;2022-07-23T05:51:32;7.38;;;5.13;;
56073;SDS011;41950;55.840;37.442;2022-07-23T05:53:58;5.97;;;4.60;;
56073;SDS011;41950;55.840;37.442;2022-07-23T05:56:24;7.88;;;4.65;;
56073;SDS011;41950;55.840;37.442;2022-07-23T05:58:49;5.25;;;4.20;;
56073;SDS011;41950;55.840;37.442;2022-07-23T06:01:15;6.43;;;5.25;;
56073;SDS011;41950;55.840;37.442;2022-07-23T06:03:41;6.05;;;4.60;;
56073;SDS011;41950;55.840;37.442;2022-07-23T06:06:07;22.90;;;6.50;;
56073;SDS011;41950;55.840;37.442;2022-07-23T06:08:33;8.82;;;5.00;;
56073;SDS011;41950;55.840;37.442;2022-07-23T06:10:58;7.18;;;5.70;;
56073;SDS011;41950;55.840;37.442;2022-07-23T06:13:24;6.22;;;4.63;;
56073;SDS011;41950;55.840;37.442;2022-07-23T06:15:50;6.93;;;5.05;;
56073;SDS011;41950;55.840;37.442;2022-07-23T06:18:17;5.47;;;4.68;;
56073;SDS011;41950;55.840;37.442;2022-07-23T06:20:43;5.80;;;5.22;;
56073;SDS011;41950;55.840;37.442;2022-07-23T06:23:08;5.72;;;5.00;;
56073;SDS011;41950;55.840;37.442;2022-07-23T06:25:34;6.97;;;5.22;;
56073;SDS011;41950;55.840;37.442;2022-07-23T06:27:59;6.25;;;4.55;;
56073;SDS011;41950;55.840;37.442;2022-07-23T06:30:25;6.57;;;5.22;;
56073;SDS011;41950;55.840;37.442;2022-07-23T06:32:51;6.03;;;5.07;;
56073;SDS011;41950;55.840;37.442;2022-07-23T06:35:16;6.95;;;4.60;;
56073;SDS011;41950;55.840;37.442;2022-07-23T06:37:43;5.90;;;5.22;;
56073;SDS011;41950;55.840;37.442;2022-07-23T06:40:10;5.78;;;5.10;;
56073;SDS011;41950;55.840;37.442;2022-07-23T06:42:36;5.53;;;4.80;;
56073;SDS011;41950;55.840;37.442;2022-07-23T06:45:05;5.78;;;5.20;;
56073;SDS011;41950;55.840;37.442;2022-07-23T06:47:32;5.95;;;4.88;;
56073;SDS011;41950;55.840;37.442;2022-07-23T06:49:58;5.70;;;5.20;;
56073;SDS011;41950;55.840;37.442;2022-07-23T06:52:23;6.20;;;5.43;;
56073;SDS011;41950;55.840;37.442;2022-07-23T06:54:52;6.22;;;5.13;;
56073;SDS011;41950;55.840;37.442;2022-07-23T06:57:18;5.85;;;5.28;;
56073;SDS011;41950;55.840;37.442;2022-07-23T06:59:43;6.32;;;5.00;;
56073;SDS011;41950;55.840;37.442;2022-07-23T07:02:09;5.78;;;5.10;;
56073;SDS011;41950;55.840;37.442;2022-07-23T07:04:35;6.07;;;5.47;;
56073;SDS011;41950;55.840;37.442;2022-07-23T07:07:00;6.57;;;5.10;;
56073;SDS011;41950;55.840;37.442;2022-07-23T07:09:26;5.70;;;5.07;;
56073;SDS011;41950;55.840;37.442;2022-07-23T07:11:53;6.15;;;5.28;;
56073;SDS011;41950;55.840;37.442;2022-07-23T07:14:20;5.57;;;4.88;;
56073;SDS011;41950;55.840;37.442;2022-07-23T07:16:46;5.47;;;4.97;;
56073;SDS011;41950;55.840;37.442;2022-07-23T07:19:11;6.03;;;5.53;;
56073;SDS011;41950;55.840;37.442;2022-07-23T07:21:38;6.78;;;5.13;;
56073;SDS011;41950;55.840;37.442;2022-07-23T07:24:04;7.22;;;5.75;;
56073;SDS011;41950;55.840;37.442;2022-07-23T07:26:33;5.65;;;5.05;;
56073;SDS011;41950;55.840;37.442;2022-07-23T07:28:59;6.47;;;5.35;;
56073;SDS011;41950;55.840;37.442;2022-07-23T07:31:24;5.80;;;5.10;;
56073;SDS011;41950;55.840;37.442;2022-07-23T07:33:50;5.65;;;4.60;;
56073;SDS011;41950;55.840;37.442;2022-07-23T07:36:16;5.38;;;4.85;;
56073;SDS011;41950;55.840;37.442;2022-07-23T07:38:42;5.93;;;4.75;;
56073;SDS011;41950;55.840;37.442;2022-07-23T07:41:09;5.22;;;4.72;;
56073;SDS011;41950;55.840;37.442;2022-07-23T07:43:36;7.70;;;5.28;;
56073;SDS011;41950;55.840;37.442;2022-07-23T07:46:02;6.03;;;5.13;;
56073;SDS011;41950;55.840;37.442;2022-07-23T07:48:30;5.30;;;4.80;;
56073;SDS011;41950;55.840;37.442;2022-07-23T07:50:55;6.38;;;4.70;;
56073;SDS011;41950;55.840;37.442;2022-07-23T07:53:21;6.07;;;5.13;;
56073;SDS011;41950;55.840;37.442;2022-07-23T07:55:47;6.30;;;5.70;;
56073;SDS011;41950;55.840;37.442;2022-07-23T07:58:13;7.13;;;5.38;;
56073;SDS011;41950;55.840;37.442;2022-07-23T08:00:39;5.93;;;5.32;;
56073;SDS011;41950;55.840;37.442;2022-07-23T08:03:05;5.88;;;5.38;;
56073;SDS011;41950;55.840;37.442;2022-07-23T08:05:31;6.18;;;5.55;;
56073;SDS011;41950;55.840;37.442;2022-07-23T08:07:57;6.22;;;5.60;;
56073;SDS011;41950;55.840;37.442;2022-07-23T08:10:24;6.13;;;5.32;;
56073;SDS011;41950;55.840;37.442;2022-07-23T08:12:53;6.03;;;5.20;;
56073;SDS011;41950;55.840;37.442;2022-07-23T08:15:25;5.47;;;4.97;;
56073;SDS011;41950;55.840;37.442;2022-07-23T08:17:53;5.95;;;5.05;;
56073;SDS011;41950;55.840;37.442;2022-07-23T08:20:19;5.90;;;5.30;;
56073;SDS011;41950;55.840;37.442;2022-07-23T08:22:48;5.38;;;4.85;;
56073;SDS011;41950;55.840;37.442;2022-07-23T08:25:16;6.10;;;5.50;;
56073;SDS011;41950;55.840;37.442;2022-07-23T08:27:46;7.72;;;5.68;;
56073;SDS011;41950;55.840;37.442;2022-07-23T08:30:12;6.25;;;4.80;;
56073;SDS011;41950;55.840;37.442;2022-07-23T08:32:54;5.90;;;5.30;;
56073;SDS011;41950;55.840;37.442;2022-07-23T08:35:25;7.13;;;5.60;;
56073;SDS011;41950;55.840;37.442;2022-07-23T08:37:53;5.57;;;4.90;;
56073;SDS011;41950;55.840;37.442;2022-07-23T08:40:19;5.45;;;4.88;;
56073;SDS011;41950;55.840;37.442;2022-07-23T08:42:47;5.75;;;5.15;;
56073;SDS011;41950;55.840;37.442;2022-07-23T08:45:14;6.70;;;5.32;;
56073;SDS011;41950;55.840;37.442;2022-07-23T08:47:41;6.90;;;5.90;;
56073;SDS011;41950;55.840;37.442;2022-07-23T08:50:08;6.78;;;5.53;;
56073;SDS011;41950;55.840;37.442;2022-07-23T08:52:51;5.80;;;5.20;;
56073;SDS011;41950;55.840;37.442;2022-07-23T08:55:50;6.35;;;5.63;;
56073;SDS011;41950;55.840;37.442;2022-07-23T08:59:17;5.50;;;4.90;;
56073;SDS011;41950;55.840;37.442;2022-07-23T09:01:42;7.57;;;5.40;;
56073;SDS011;41950;55.840;37.442;2022-07-23T09:04:08;6.70;;;5.15;;
56073;SDS011;41950;55.840;37.442;2022-07-23T09:06:34;6.70;;;5.47;;
56073;SDS011;41950;55.840;37.442;2022-07-23T09:09:15;6.50;;;5.03;;
56073;SDS011;41950;55.840;37.442;2022-07-23T09:11:45;5.65;;;5.15;;
56073;SDS011;41950;55.840;37.442;2022-07-23T09:14:12;7.55;;;5.35;;
56073;SDS011;41950;55.840;37.442;2022-07-23T09:16:37;6.20;;;5.60;;
56073;SDS011;41950;55.840;37.442;2022-07-23T09:19:04;6.35;;;5.18;;
56073;SDS011;41950;55.840;37.442;2022-07-23T09:21:31;6.43;;;5.50;;
56073;SDS011;41950;55.840;37.442;2022-07-23T09:24:02;6.43;;;5.30;;
56073;SDS011;41950;55.840;37.442;2022-07-23T09:34:13;7.00;;;6.10;;
56073;SDS011;41950;55.840;37.442;2022-07-23T09:36:55;9.63;;;5.78;;
56073;SDS011;41950;55.840;37.442;2022-07-23T09:39:30;6.20;;;5.60;;
56073;SDS011;41950;55.840;37.442;2022-07-23T09:41:58;6.72;;;5.20;;
56073;SDS011;41950;55.840;37.442;2022-07-23T09:47:10;6.82;;;5.78;;
56073;SDS011;41950;55.840;37.442;2022-07-23T09:49:38;7.90;;;5.78;;
56073;SDS011;41950;55.840;37.442;2022-07-23T09:52:06;7.05;;;6.35;;
56073;SDS011;41950;55.840;37.442;2022-07-23T09:54:35;6.55;;;5.95;;
56073;SDS011;41950;55.840;37.442;2022-07-23T09:57:08;7.20;;;6.50;;
56073;SDS011;41950;55.840;37.442;2022-07-23T10:00:02;7.03;;;5.45;;
56073;SDS011;41950;55.840;37.442;2022-07-23T10:02:32;8.18;;;6.28;;
56073;SDS011;41950;55.840;37.442;2022-07-23T10:04:59;6.63;;;5.75;;
56073;SDS011;41950;55.840;37.442;2022-07-23T10:07:26;6.78;;;5.80;;
56073;SDS011;41950;55.840;37.442;2022-07-23T10:09:55;7.28;;;6.55;;
56073;SDS011;41950;55.840;37.442;2022-07-23T10:12:23;6.97;;;5.35;;
56073;SDS011;41950;55.840;37.442;2022-07-23T10:15:03;5.80;;;5.20;;
56073;SDS011;41950;55.840;37.442;2022-07-23T10:17:31;6.07;;;5.45;;
56073;SDS011;41950;55.840;37.442;2022-07-23T10:19:56;6.97;;;6.30;;
56073;SDS011;41950;55.840;37.442;2022-07-23T10:22:23;7.85;;;5.53;;
56073;SDS011;41950;55.840;37.442;2022-07-23T10:30:22;5.78;;;5.18;;
56073;SDS011;41950;55.840;37.442;2022-07-23T10:38:15;12.07;;;6.88;;
56073;SDS011;41950;55.840;37.442;2022-07-23T10:41:07;7.85;;;6.78;;
56073;SDS011;41950;55.840;37.442;2022-07-23T10:43:32;9.32;;;8.30;;
56073;SDS011;41950;55.840;37.442;2022-07-23T10:48:45;12.20;;;8.18;;
56073;SDS011;41950;55.840;37.442;2022-07-23T10:54:40;14.07;;;10.05;;
56073;SDS011;41950;55.840;37.442;2022-07-23T10:57:07;6.72;;;5.82;;
56073;SDS011;41950;55.840;37.442;2022-07-23T11:02:33;8.00;;;6.50;;
56073;SDS011;41950;55.840;37.442;2022-07-23T11:05:01;7.85;;;7.05;;
56073;SDS011;41950;55.840;37.442;2022-07-23T11:07:29;11.80;;;8.90;;
56073;SDS011;41950;55.840;37.442;2022-07-23T11:09:58;6.93;;;6.20;;
56073;SDS011;41950;55.840;37.442;2022-07-23T11:17:29;6.55;;;5.75;;
56073;SDS011;41950;55.840;37.442;2022-07-23T11:22:34;6.75;;;6.05;;
56073;SDS011;41950;55.840;37.442;2022-07-23T11:25:04;5.82;;;5.22;;
56073;SDS011;41950;55.840;37.442;2022-07-23T11:27:37;6.88;;;6.18;;
56073;SDS011;41950;55.840;37.442;2022-07-23T11:30:09;6.38;;;5.55;;
56073;SDS011;41950;55.840;37.442;2022-07-23T11:35:34;6.00;;;5.50;;
56073;SDS011;41950;55.840;37.442;2022-07-23T11:38:14;6.03;;;5.32;;
56073;SDS011;41950;55.840;37.442;2022-07-23T11:40:43;5.90;;;5.30;;
56073;SDS011;41950;55.840;37.442;2022-07-23T11:43:13;7.60;;;5.47;;
56073;SDS011;41950;55.840;37.442;2022-07-23T11:45:40;6.30;;;5.70;;
56073;SDS011;41950;55.840;37.442;2022-07-23T11:48:08;5.85;;;5.25;;
56073;SDS011;41950;55.840;37.442;2022-07-23T11:50:40;6.55;;;5.15;;
56073;SDS011;41950;55.840;37.442;2022-07-23T11:53:06;6.40;;;5.80;;
56073;SDS011;41950;55.840;37.442;2022-07-23T11:55:31;5.80;;;5.25;;
56073;SDS011;41950;55.840;37.442;2022-07-23T11:57:57;6.20;;;5.57;;
56073;SDS011;41950;55.840;37.442;2022-07-23T12:00:28;6.32;;;5.78;;
56073;SDS011;41950;55.840;37.442;2022-07-23T12:02:58;6.00;;;5.50;;
56073;SDS011;41950;55.840;37.442;2022-07-23T12:05:27;6.38;;;5.78;;
56073;SDS011;41950;55.840;37.442;2022-07-23T12:07:55;6.30;;;5.70;;
56073;SDS011;41950;55.840;37.442;2022-07-23T12:10:56;6.13;;;5.53;;
56073;SDS011;41950;55.840;37.442;2022-07-23T12:13:16;6.38;;;5.78;;
56073;SDS011;41950;55.840;37.442;2022-07-23T12:16:02;5.95;;;5.38;;
56073;SDS011;41950;55.840;37.442;2022-07-23T12:18:29;5.95;;;5.35;;
56073;SDS011;41950;55.840;37.442;2022-07-23T12:20:56;6.15;;;5.47;;
56073;SDS011;41950;55.840;37.442;2022-07-23T12:23:24;5.32;;;4.82;;
56073;SDS011;41950;55.840;37.442;2022-07-23T12:25:52;6.07;;;5.55;;
56073;SDS011;41950;55.840;37.442;2022-07-23T12:28:19;6.53;;;5.82;;
56073;SDS011;41950;55.840;37.442;2022-07-23T12:30:48;5.90;;;5.30;;
56073;SDS011;41950;55.840;37.442;2022-07-23T12:33:21;6.82;;;5.90;;
56073;SDS011;41950;55.840;37.442;2022-07-23T12:35:52;6.07;;;5.53;;
56073;SDS011;41950;55.840;37.442;2022-07-23T12:38:20;6.00;;;5.40;;
56073;SDS011;41950;55.840;37.442;2022-07-23T12:40:48;5.20;;;4.70;;
56073;SDS011;41950;55.840;37.442;2022-07-23T12:46:04;6.32;;;5.60;;
56073;SDS011;41950;55.840;37.442;2022-07-23T12:48:37;6.45;;;5.35;;
56073;SDS011;41950;55.840;37.442;2022-07-23T12:51:15;6.63;;;5.53;;
56073;SDS011;41950;55.840;37.442;2022-07-23T12:53:43;6.45;;;5.13;;
56073;SDS011;41950;55.840;37.442;2022-07-23T12:56:12;6.15;;;5.40;;
56073;SDS011;41950;55.840;37.442;2022-07-23T12:58:52;5.38;;;4.80;;
56073;SDS011;41950;55.840;37.442;2022-07-23T13:03:54;6.80;;;5.45;;
56073;SDS011;41950;55.840;37.442;2022-07-23T13:06:20;7.63;;;5.70;;
56073;SDS011;41950;55.840;37.442;2022-07-23T13:08:45;6.20;;;5.00;;
56073;SDS011;41950;55.840;37.442;2022-07-23T13:11:11;5.70;;;5.10;;
56073;SDS011;41950;55.840;37.442;2022-07-23T13:13:39;6.60;;;5.55;;
56073;SDS011;41950;55.840;37.442;2022-07-23T13:16:04;6.03;;;5.50;;
56073;SDS011;41950;55.840;37.442;2022-07-23T13:18:30;6.18;;;5.32;;
56073;SDS011;41950;55.840;37.442;2022-07-23T13:20:57;5.97;;;5.10;;
56073;SDS011;41950;55.840;37.442;2022-07-23T13:23:23;6.30;;;4.80;;
56073;SDS011;41950;55.840;37.442;2022-07-23T13:25:49;7.07;;;5.88;;
56073;SDS011;41950;55.840;37.442;2022-07-23T13:28:15;6.05;;;5.20;;
56073;SDS011;41950;55.840;37.442;2022-07-23T13:30:42;5.43;;;4.93;;
56073;SDS011;41950;55.840;37.442;2022-07-23T13:33:10;5.95;;;5.13;;
56073;SDS011;41950;55.840;37.442;2022-07-23T13:35:36;5.72;;;5.22;;
56073;SDS011;41950;55.840;37.442;2022-07-23T13:38:03;6.70;;;5.28;;
56073;SDS011;41950;55.840;37.442;2022-07-23T13:40:32;5.50;;;5.00;;
56073;SDS011;41950;55.840;37.442;2022-07-23T13:42:59;5.78;;;5.10;;
56073;SDS011;41950;55.840;37.442;2022-07-23T13:45:25;5.50;;;4.80;;
56073;SDS011;41950;55.840;37.442;2022-07-23T13:47:52;5.38;;;4.88;;
56073;SDS011;41950;55.840;37.442;2022-07-23T13:50:18;6.20;;;5.60;;
56073;SDS011;41950;55.840;37.442;2022-07-23T13:52:44;6.32;;;5.18;;
56073;SDS011;41950;55.840;37.442;2022-07-23T13:55:12;6.00;;;5.40;;
56073;SDS011;41950;55.840;37.442;2022-07-23T13:57:38;5.97;;;5.32;;
56073;SDS011;41950;55.840;37.442;2022-07-23T14:00:04;5.85;;;5.32;;
56073;SDS011;41950;55.840;37.442;2022-07-23T14:02:32;5.65;;;5.15;;
56073;SDS011;41950;55.840;37.442;2022-07-23T14:04:58;5.30;;;4.80;;
56073;SDS011;41950;55.840;37.442;2022-07-23T14:07:28;5.50;;;5.00;;
56073;SDS011;41950;55.840;37.442;2022-07-23T14:09:53;6.30;;;5.40;;
56073;SDS011;41950;55.840;37.442;2022-07-23T14:12:19;6.53;;;4.90;;
56073;SDS011;41950;55.840;37.442;2022-07-23T14:14:45;6.20;;;5.60;;
56073;SDS011;41950;55.840;37.442;2022-07-23T14:17:10;6.20;;;5.60;;
56073;SDS011;41950;55.840;37.442;2022-07-23T14:19:39;5.90;;;5.30;;
56073;SDS011;41950;55.840;37.442;2022-07-23T14:22:05;6.05;;;5.45;;
56073;SDS011;41950;55.840;37.442;2022-07-23T14:24:31;5.88;;;4.95;;
56073;SDS011;41950;55.840;37.442;2022-07-23T14:26:59;5.55;;;5.00;;
56073;SDS011;41950;55.840;37.442;2022-07-23T14:29:26;5.45;;;4.90;;
56073;SDS011;41950;55.840;37.442;2022-07-23T14:31:51;6.40;;;5.20;;
56073;SDS011;41950;55.840;37.442;2022-07-23T14:34:17;5.90;;;5.15;;
56073;SDS011;41950;55.840;37.442;2022-07-23T14:36:42;5.70;;;5.20;;
56073;SDS011;41950;55.840;37.442;2022-07-23T14:39:11;5.30;;;4.80;;
56073;SDS011;41950;55.840;37.442;2022-07-23T14:41:37;6.18;;;4.88;;
56073;SDS011;41950;55.840;37.442;2022-07-23T14:44:04;5.40;;;4.60;;
56073;SDS011;41950;55.840;37.442;2022-07-23T14:46:30;5.97;;;5.20;;
56073;SDS011;41950;55.840;37.442;2022-07-23T14:48:56;5.50;;;4.95;;
56073;SDS011;41950;55.840;37.442;2022-07-23T14:51:22;6.00;;;4.65;;
56073;SDS011;41950;55.840;37.442;2022-07-23T14:53:47;5.40;;;4.90;;
56073;SDS011;41950;55.840;37.442;2022-07-23T14:56:13;5.85;;;4.80;;
56073;SDS011;41950;55.840;37.442;2022-07-23T14:58:39;5.28;;;4.78;;
56073;SDS011;41950;55.840;37.442;2022-07-23T15:01:12;6.60;;;5.10;;
56073;SDS011;41950;55.840;37.442;2022-07-23T15:03:38;5.65;;;4.70;;
56073;SDS011;41950;55.840;37.442;2022-07-23T15:06:04;5.43;;;4.93;;
56073;SDS011;41950;55.840;37.442;2022-07-23T15:08:30;5.30;;;4.80;;
56073;SDS011;41950;55.840;37.442;2022-07-23T15:10:55;5.40;;;4.60;;
56073;SDS011;41950;55.840;37.442;2022-07-23T15:13:21;5.05;;;4.55;;
56073;SDS011;41950;55.840;37.442;2022-07-23T15:15:46;5.78;;;5.13;;
56073;SDS011;41950;55.840;37.442;2022-07-23T15:18:12;5.35;;;4.65;;
56073;SDS011;41950;55.840;37.442;2022-07-23T15:20:38;5.60;;;4.88;;